Terminal Aerodrome Forecast
Issued by NWS Cleveland, OH

Home | Current Version | Previous Version | Graphics & Text | Print | Product List | Glossary On
Versions: 1 2 3 4 5 6 7 8 9 10 11 12
000
FTUS41 KCLE 251131
TAFMFD
TAF
KMFD 251131Z 2512/2612 18003KT P6SM SKC
     FM251500 23010KT P6SM SCT040 BKN200
     FM260200 23008KT P6SM VCSH BKN040 OVC150
     FM260900 27005KT P6SM BKN020=

USA.gov is the U.S. government's official web portal to all federal, state and local government web resources and services.